createdAt,value
2022-10-20T00:00:29.544Z,101399.14
2022-10-20T00:03:30.647Z,101394.80
2022-10-20T00:06:16.664Z,101394.15
2022-10-20T00:09:01.337Z,101394.52
2022-10-20T00:11:31.811Z,101399.75
2022-10-20T00:16:58.718Z,101402.25
2022-10-20T00:19:39.678Z,101401.73
2022-10-20T00:22:11.458Z,101405.47
2022-10-20T00:24:41.205Z,101408.46
2022-10-20T00:27:15.824Z,101411.59
2022-10-20T00:29:48.223Z,101409.98
2022-10-20T00:32:31.683Z,101410.23
2022-10-20T00:35:09.290Z,101406.55
2022-10-20T00:37:39.703Z,101406.20
2022-10-20T00:40:18.635Z,101404.61
2022-10-20T00:43:01.313Z,101400.88
2022-10-20T00:45:35.608Z,101400.37
2022-10-20T00:48:18.497Z,101401.58
2022-10-20T00:50:51.804Z,101394.23
2022-10-20T00:53:44.504Z,101396.66
2022-10-20T00:56:14.053Z,101402.30
2022-10-20T00:58:48.389Z,101400.38
2022-10-20T01:01:25.826Z,101397.76
2022-10-20T01:03:55.711Z,101397.11
2022-10-20T01:06:29.059Z,101392.41
2022-10-20T01:09:09.772Z,101392.58
2022-10-20T01:11:46.485Z,101400.15
2022-10-20T01:15:16.154Z,101406.00
2022-10-20T01:18:07.916Z,101406.30
2022-10-20T01:20:46.644Z,101408.13
2022-10-20T01:23:44.669Z,101405.05
2022-10-20T01:26:32.598Z,101404.27
2022-10-20T01:29:12.441Z,101406.52
2022-10-20T01:31:45.227Z,101404.86
2022-10-20T01:34:34.886Z,101401.45
2022-10-20T01:37:34.083Z,101403.92
2022-10-20T01:40:34.351Z,101406.45
2022-10-20T01:43:12.267Z,101405.59
2022-10-20T01:45:55.764Z,101402.97
2022-10-20T01:48:43.121Z,101408.41
2022-10-20T01:51:13.085Z,101409.90
2022-10-20T01:53:42.925Z,101413.38
2022-10-20T01:56:31.440Z,101407.49
2022-10-20T01:59:19.522Z,101409.36
2022-10-20T02:02:24.903Z,101410.69
2022-10-20T02:05:32.108Z,101405.95
2022-10-20T02:08:27.152Z,101406.71
2022-10-20T02:11:09.417Z,101407.48
2022-10-20T02:13:41.884Z,101404.79
2022-10-20T02:16:24.899Z,101401.56
2022-10-20T02:19:04.535Z,101398.38
2022-10-20T02:21:39.998Z,101396.30
2022-10-20T02:24:20.875Z,101397.09
2022-10-20T02:26:59.697Z,101398.17
2022-10-20T02:29:35.554Z,101401.16
2022-10-20T02:32:11.112Z,101400.83
2022-10-20T02:34:42.730Z,101402.58
2022-10-20T02:39:50.350Z,101397.02
2022-10-20T02:42:19.410Z,101394.96
2022-10-20T02:44:59.085Z,101394.60
2022-10-20T02:47:28.864Z,101395.18
2022-10-20T02:50:01.386Z,101399.89
2022-10-20T02:52:39.177Z,101397.14
2022-10-20T02:55:09.343Z,101400.40
2022-10-20T02:57:38.875Z,101398.22
2022-10-20T03:00:09.398Z,101401.20
2022-10-20T03:02:52.715Z,101401.52
2022-10-20T03:05:22.735Z,101398.12
2022-10-20T03:07:52.323Z,101396.64
2022-10-20T03:10:23.994Z,101403.41
2022-10-20T03:12:53.626Z,101408.71
2022-10-20T03:15:22.700Z,101409.59
2022-10-20T03:17:51.894Z,101409.67
2022-10-20T03:20:24.379Z,101409.25
2022-10-20T03:22:53.718Z,101410.61
2022-10-20T03:25:25.999Z,101413.54
2022-10-20T03:28:04.922Z,101416.38
2022-10-20T03:30:42.694Z,101416.40
2022-10-20T03:33:12.013Z,101416.56
2022-10-20T03:35:41.985Z,101414.31
2022-10-20T03:38:11.178Z,101414.45
2022-10-20T03:40:41.369Z,101413.89
2022-10-20T03:43:21.083Z,101416.63
2022-10-20T03:45:51.909Z,101418.55
2022-10-20T03:48:21.631Z,101424.80
2022-10-20T03:50:58.154Z,101426.81
2022-10-20T03:53:32.578Z,101429.91
2022-10-20T03:56:10.140Z,101432.34
2022-10-20T03:58:41.563Z,101432.09
2022-10-20T04:01:35.993Z,101433.36
2022-10-20T04:04:05.120Z,101437.68
2022-10-20T04:06:40.556Z,101440.17
2022-10-20T04:09:22.568Z,101440.65
2022-10-20T04:11:56.669Z,101439.75
2022-10-20T04:14:26.133Z,101442.23
2022-10-20T04:16:55.118Z,101445.73
2022-10-20T04:19:24.829Z,101445.33
2022-10-20T04:22:06.400Z,101445.94
2022-10-20T04:24:36.300Z,101443.67
2022-10-20T04:27:08.563Z,101445.66
2022-10-20T04:29:38.306Z,101446.04
2022-10-20T04:32:20.859Z,101447.44
2022-10-20T04:34:53.672Z,101444.79
2022-10-20T04:37:26.517Z,101446.75
2022-10-20T04:40:05.774Z,101449.39
2022-10-20T04:42:55.279Z,101450.80
2022-10-20T04:45:30.281Z,101453.24
2022-10-20T04:48:08.345Z,101450.17
2022-10-20T04:51:28.867Z,101450.65
2022-10-20T04:54:07.425Z,101447.16
2022-10-20T04:56:41.102Z,101446.80
2022-10-20T04:59:13.514Z,101448.45
2022-10-20T05:01:56.962Z,101452.92
2022-10-20T05:04:35.423Z,101455.32
2022-10-20T05:07:05.684Z,101454.54
2022-10-20T05:09:49.037Z,101454.33
2022-10-20T05:12:29.751Z,101455.54
2022-10-20T05:15:00.164Z,101456.38
2022-10-20T05:17:43.589Z,101456.92
2022-10-20T05:20:14.018Z,101457.28
2022-10-20T05:23:01.033Z,101461.80
2022-10-20T05:25:36.393Z,101464.41
2022-10-20T05:28:07.078Z,101464.98
2022-10-20T05:33:22.945Z,101463.88
2022-10-20T05:35:54.467Z,101473.83
2022-10-20T05:38:37.448Z,101478.33
2022-10-20T05:41:16.948Z,101482.45
2022-10-20T05:44:04.807Z,101483.69
2022-10-20T05:46:40.755Z,101486.16
2022-10-20T05:49:36.140Z,101487.05
2022-10-20T05:52:06.137Z,101490.73
2022-10-20T05:54:41.884Z,101492.31
2022-10-20T05:57:20.087Z,101493.73
2022-10-20T05:59:59.016Z,101496.66
2022-10-20T06:02:29.519Z,101494.14
2022-10-20T06:05:03.787Z,101500.36
2022-10-20T06:07:36.566Z,101502.73
2022-10-20T06:10:14.804Z,101503.26
2022-10-20T06:12:44.926Z,101503.79
2022-10-20T06:15:16.357Z,101503.40
2022-10-20T06:17:57.844Z,101507.85
2022-10-20T06:20:29.453Z,101504.72
2022-10-20T06:23:02.237Z,101505.77
2022-10-20T06:25:33.175Z,101509.60
2022-10-20T06:28:06.830Z,101512.79
2022-10-20T06:30:37.001Z,101517.64
2022-10-20T06:33:22.592Z,101519.51
2022-10-20T06:35:52.191Z,101516.34
2022-10-20T06:38:23.068Z,101517.70
2022-10-20T06:40:53.338Z,101521.00
2022-10-20T06:43:23.367Z,101523.51
2022-10-20T06:46:04.339Z,101528.90
2022-10-20T06:48:47.600Z,101530.21
2022-10-20T06:51:30.606Z,101529.94
2022-10-20T06:54:03.351Z,101540.85
2022-10-20T06:56:38.151Z,101546.30
2022-10-20T06:59:10.164Z,101551.95
2022-10-20T07:01:48.401Z,101551.70
2022-10-20T07:04:18.150Z,101551.16
2022-10-20T07:06:56.856Z,101555.69
2022-10-20T07:09:27.933Z,101552.91
2022-10-20T07:11:57.040Z,101549.01
2022-10-20T07:14:39.775Z,101548.38
2022-10-20T07:17:10.788Z,101550.23
2022-10-20T07:19:39.889Z,101550.30
2022-10-20T07:22:11.439Z,101559.64
2022-10-20T07:24:58.529Z,101556.70
2022-10-20T07:27:27.764Z,101559.48
2022-10-20T07:29:57.268Z,101561.92
2022-10-20T07:32:26.625Z,101567.36
2022-10-20T07:34:58.617Z,101566.79
2022-10-20T07:37:27.918Z,101567.81
2022-10-20T07:39:57.382Z,101571.46
2022-10-20T07:42:26.593Z,101572.12
2022-10-20T07:45:00.424Z,101572.84
2022-10-20T07:47:38.175Z,101572.83
2022-10-20T07:50:10.721Z,101571.56
2022-10-20T07:52:40.902Z,101571.88
2022-10-20T07:55:23.907Z,101572.75
2022-10-20T07:58:10.465Z,101571.34
2022-10-20T08:03:10.394Z,101570.30
2022-10-20T08:05:39.303Z,101571.52
2022-10-20T08:08:17.372Z,101568.86
2022-10-20T08:10:48.934Z,101566.58
2022-10-20T08:13:18.336Z,101568.27
2022-10-20T08:15:49.643Z,101567.83
2022-10-20T08:18:26.679Z,101567.02
2022-10-20T08:21:07.047Z,101569.20
2022-10-20T08:23:39.900Z,101575.08
2022-10-20T08:26:11.958Z,101575.70
2022-10-20T08:28:47.547Z,101571.46
2022-10-20T08:31:17.292Z,101575.71
2022-10-20T08:33:51.420Z,101577.94
2022-10-20T08:36:21.986Z,101574.19
2022-10-20T08:39:03.570Z,101571.50
2022-10-20T08:44:42.199Z,101571.29
2022-10-20T08:47:33.937Z,101575.04
2022-10-20T08:50:10.009Z,101575.08
2022-10-20T08:52:44.721Z,101583.38
2022-10-20T08:55:27.057Z,101584.00
2022-10-20T08:58:15.703Z,101591.20
2022-10-20T09:00:47.768Z,101590.46
2022-10-20T09:03:30.485Z,101587.61
2022-10-20T09:06:10.304Z,101587.55
2022-10-20T09:08:47.114Z,101584.38
2022-10-20T09:11:39.318Z,101584.20
2022-10-20T09:14:14.011Z,101582.97
2022-10-20T09:17:01.230Z,101582.78
2022-10-20T09:19:33.696Z,101584.38
2022-10-20T09:22:08.050Z,101581.26
2022-10-20T09:24:39.229Z,101581.40
2022-10-20T09:27:41.109Z,101578.23
2022-10-20T09:30:21.708Z,101579.41
2022-10-20T09:32:51.310Z,101579.80
2022-10-20T09:35:34.538Z,101576.25
2022-10-20T09:38:39.492Z,101570.08
2022-10-20T09:41:29.818Z,101570.34
2022-10-20T09:44:09.610Z,101567.85
2022-10-20T09:46:44.949Z,101565.92
2022-10-20T09:49:34.556Z,101564.36
2022-10-20T09:52:16.982Z,101567.30
2022-10-20T09:55:01.856Z,101562.27
2022-10-20T09:57:56.440Z,101559.05
2022-10-20T10:00:37.290Z,101553.60
2022-10-20T10:03:23.529Z,101553.15
2022-10-20T10:06:01.463Z,101554.14
2022-10-20T10:08:48.089Z,101556.55
2022-10-20T10:11:25.250Z,101550.36
2022-10-20T10:13:55.782Z,101541.60
2022-10-20T10:16:44.847Z,101539.55
2022-10-20T10:19:21.716Z,101543.70
2022-10-20T10:22:24.024Z,101537.70
2022-10-20T10:24:56.214Z,101538.77
2022-10-20T10:27:33.705Z,101540.52
2022-10-20T10:30:31.316Z,101537.95
2022-10-20T10:33:20.987Z,101536.36
2022-10-20T10:35:55.543Z,101530.11
2022-10-20T10:38:32.126Z,101529.65
2022-10-20T10:41:21.679Z,101525.34
2022-10-20T10:44:24.861Z,101521.98
2022-10-20T10:47:24.095Z,101520.85
2022-10-20T10:50:12.503Z,101521.39
2022-10-20T10:53:25.324Z,101520.07
2022-10-20T10:56:32.041Z,101516.33
2022-10-20T10:59:42.578Z,101510.50
2022-10-20T11:02:37.192Z,101510.64
2022-10-20T11:05:40.323Z,101505.42
2022-10-20T11:08:52.398Z,101504.60
2022-10-20T11:11:39.778Z,101500.87
2022-10-20T11:14:28.738Z,101494.06
2022-10-20T11:17:48.284Z,101487.73
2022-10-20T11:21:04.926Z,101482.58
2022-10-20T11:23:49.080Z,101476.55
2022-10-20T11:26:55.103Z,101473.40
2022-10-20T11:30:18.514Z,101468.95
2022-10-20T11:33:21.539Z,101470.35
2022-10-20T11:36:01.965Z,101466.31
2022-10-20T11:38:42.568Z,101460.14
2022-10-20T11:44:57.721Z,101460.09
2022-10-20T11:47:53.231Z,101456.85
2022-10-20T11:50:27.038Z,101457.12
2022-10-20T11:53:47.533Z,101456.52
2022-10-20T11:56:49.085Z,101450.73
2022-10-20T11:59:59.265Z,101444.64
2022-10-20T12:02:55.067Z,101440.80
2022-10-20T12:05:35.037Z,101442.08
2022-10-20T12:08:28.972Z,101437.55
2022-10-20T12:11:26.872Z,101434.77
2022-10-20T12:17:56.710Z,101423.64
2022-10-20T12:20:25.606Z,101422.84
2022-10-20T12:23:24.184Z,101423.62
2022-10-20T12:25:54.222Z,101417.59
2022-10-20T12:28:23.853Z,101416.63
